Lehigh, North Dakota
Current Conditions -  °F | °C
As of 12:56 AM on Monday 26 Jan 2015 (Local Time) from KDIK Reporting Station
Clear Clear  
Wind Chill: 32°   Ceiling: Unl
Heat Index: 40°   Visibility: 10mi
Dew Point: 33°   Wind: 14mph
Humidity: 77%   Direction: 290°WNW
Pressure: 29.85"   Gusts: NA
Location:  46.9271°N, 102.754°W
Report Text: KDIK 260756Z AUTO 29012KT 10SM CLR 04/01 A2985 RMK AO2 SLP123 T00440006
Loading
Personal Weather Stations






























Interactive Weather Map New forecast layout! Learn more

10-Day Weather Forecast

Advertisements
Track Severe Weather on mobile